Time;durP1;ratioP1;P1;durP2;ratioP2;P2;SDS_P1;SDS_P2;PMS_P1;PMS_P2;Temp;Humidity;BMP_temperature;BMP_pressure;BME280_temperature;BME280_humidity;BME280_pressure;Samples;Min_cycle;Max_cycle;Signal;HPM_P1;HPM_P2
2023/03/20 00:01:10;;;;;;;12.23;6.73;;;;;;;;;;5114014;28;20711;-77
2023/03/20 00:03:38;;;;;;;9.63;5.77;;;;;;;;;;5114679;28;20279;-77
2023/03/20 00:06:05;;;;;;;13.73;8.00;;;;;;;;;;5114286;28;20225;-76
2023/03/20 00:08:32;;;;;;;13.20;7.50;;;;;;;;;;5114019;28;20193;-77
2023/03/20 00:11:00;;;;;;;11.17;6.47;;;;;;;;;;5113642;28;20221;-77
2023/03/20 00:13:29;;;;;;;13.30;5.03;;;;;;;;;;5113640;28;20297;-76
2023/03/20 00:15:56;;;;;;;11.03;5.30;;;;;;;;;;5114287;28;20200;-77
2023/03/20 00:18:25;;;;;;;9.50;6.03;;;;;;;;;;5113806;27;20279;-77
2023/03/20 00:20:53;;;;;;;13.43;6.00;;;;;;;;;;5113805;28;20210;-77
2023/03/20 00:23:20;;;;;;;14.43;5.70;;;;;;;;;;5113654;28;20194;-77
2023/03/20 00:25:47;;;;;;;13.50;4.80;;;;;;;;;;5113527;28;20190;-77
2023/03/20 00:28:33;;;;;;;11.90;5.17;;;;;;;;;;5113854;28;20198;-77
2023/03/20 00:31:01;;;;;;;10.17;4.53;;;;;;;;;;5113777;28;20717;-77
2023/03/20 00:33:30;;;;;;;10.73;5.50;;;;;;;;;;5113506;28;20289;-78
2023/03/20 00:35:58;;;;;;;11.77;5.57;;;;;;;;;;5113397;28;20232;-77
2023/03/20 00:38:25;;;;;;;14.60;6.77;;;;;;;;;;5113209;28;20249;-78
2023/03/20 00:40:52;;;;;;;9.67;5.23;;;;;;;;;;5112904;28;20292;-77
2023/03/20 00:43:19;;;;;;;12.33;5.90;;;;;;;;;;5113765;28;20225;-78
2023/03/20 00:45:48;;;;;;;10.67;4.90;;;;;;;;;;5112235;28;20358;-77
2023/03/20 00:48:16;;;;;;;10.07;4.57;;;;;;;;;;5113283;28;20221;-77
2023/03/20 00:50:43;;;;;;;11.03;4.90;;;;;;;;;;5113067;28;20194;-77
2023/03/20 00:53:11;;;;;;;12.47;5.30;;;;;;;;;;5112899;28;20730;-77
2023/03/20 00:55:39;;;;;;;10.23;5.60;;;;;;;;;;5112840;28;20240;-78
2023/03/20 00:58:07;;;;;;;9.47;5.07;;;;;;;;;;5112683;28;20232;-76
2023/03/20 01:00:39;;;;;;;12.50;5.00;;;;;;;;;;5113124;28;20248;-77
2023/03/20 01:03:13;;;;;;;8.23;5.00;;;;;;;;;;5113114;28;20254;-77
2023/03/20 01:05:40;;;;;;;10.27;4.77;;;;;;;;;;5112858;28;20258;-77
2023/03/20 01:08:12;;;;;;;8.23;4.57;;;;;;;;;;5112944;28;20194;-79
2023/03/20 01:10:40;;;;;;;11.17;4.53;;;;;;;;;;5112457;28;20286;-77
2023/03/20 01:13:11;;;;;;;8.97;4.67;;;;;;;;;;5112698;28;20260;-77
2023/03/20 01:15:38;;;;;;;9.87;4.53;;;;;;;;;;5113034;28;20226;-76
2023/03/20 01:18:05;;;;;;;12.20;4.43;;;;;;;;;;5112728;28;20225;-77
2023/03/20 01:20:34;;;;;;;8.60;4.23;;;;;;;;;;5112188;28;20222;-76
2023/03/20 01:23:01;;;;;;;8.17;4.17;;;;;;;;;;5112779;28;20286;-77
2023/03/20 01:25:28;;;;;;;9.60;4.23;;;;;;;;;;5112036;28;20285;-77
2023/03/20 01:27:56;;;;;;;8.70;4.27;;;;;;;;;;5112278;28;20293;-77
2023/03/20 01:30:25;;;;;;;12.00;4.70;;;;;;;;;;5112732;28;20226;-76
2023/03/20 01:32:52;;;;;;;9.13;4.07;;;;;;;;;;5112556;28;20240;-77
2023/03/20 01:35:21;;;;;;;7.90;3.83;;;;;;;;;;5112100;28;20229;-78
2023/03/20 01:37:51;;;;;;;10.70;4.60;;;;;;;;;;5112039;28;20734;-77
2023/03/20 01:40:24;;;;;;;9.50;3.70;;;;;;;;;;5112170;28;20233;-77
2023/03/20 01:42:52;;;;;;;10.43;4.07;;;;;;;;;;5111839;28;20225;-78
2023/03/20 01:45:21;;;;;;;10.57;4.33;;;;;;;;;;5112189;28;20189;-77
2023/03/20 01:47:50;;;;;;;9.07;4.37;;;;;;;;;;5111615;28;20732;-76
2023/03/20 01:50:22;;;;;;;9.63;4.00;;;;;;;;;;5112080;28;20201;-77
2023/03/20 01:52:52;;;;;;;9.57;3.80;;;;;;;;;;5111298;28;20246;-77
2023/03/20 01:55:20;;;;;;;6.07;3.90;;;;;;;;;;5111819;28;20220;-76
2023/03/20 01:57:48;;;;;;;7.50;3.70;;;;;;;;;;5111057;28;20674;-77
2023/03/20 02:00:16;;;;;;;9.97;4.40;;;;;;;;;;5112092;28;20677;-77
2023/03/20 02:02:44;;;;;;;7.73;3.90;;;;;;;;;;5111873;28;20197;-75
2023/03/20 02:05:14;;;;;;;13.77;4.30;;;;;;;;;;5111684;28;20190;-77
2023/03/20 02:07:41;;;;;;;10.83;3.90;;;;;;;;;;5111657;28;20296;-77
2023/03/20 02:10:11;;;;;;;9.47;3.97;;;;;;;;;;5111916;28;20351;-76
2023/03/20 02:12:39;;;;;;;9.80;3.60;;;;;;;;;;5111220;28;20233;-76
2023/03/20 02:15:07;;;;;;;7.87;3.67;;;;;;;;;;5112046;28;20204;-77
2023/03/20 02:17:34;;;;;;;8.70;3.73;;;;;;;;;;5111690;28;20217;-77
2023/03/20 02:20:05;;;;;;;8.70;3.77;;;;;;;;;;5111712;28;20313;-77
2023/03/20 02:22:48;;;;;;;10.43;4.30;;;;;;;;;;5111122;28;20258;-77
2023/03/20 02:25:26;;;;;;;13.23;4.50;;;;;;;;;;5111704;28;20220;-78
2023/03/20 02:28:23;;;;;;;10.53;3.83;;;;;;;;;;5111422;28;20209;-78
2023/03/20 02:31:00;;;;;;;11.07;4.17;;;;;;;;;;5088858;28;20222;-77
2023/03/20 02:33:42;;;;;;;11.27;4.30;;;;;;;;;;5088536;28;20232;-77
2023/03/20 02:36:19;;;;;;;12.93;4.57;;;;;;;;;;5085991;28;20226;-76
2023/03/20 02:38:56;;;;;;;11.83;4.47;;;;;;;;;;5088553;28;20302;-77
2023/03/20 02:41:26;;;;;;;10.03;3.93;;;;;;;;;;5089230;28;20741;-77
2023/03/20 02:43:59;;;;;;;9.00;3.27;;;;;;;;;;5088815;28;20751;-77
2023/03/20 02:46:29;;;;;;;7.60;3.87;;;;;;;;;;5088275;28;20660;-77
2023/03/20 02:48:58;;;;;;;10.57;3.73;;;;;;;;;;5089090;28;20743;-77
2023/03/20 02:51:31;;;;;;;10.00;4.20;;;;;;;;;;5088516;28;20746;-77
2023/03/20 02:54:05;;;;;;;10.40;4.40;;;;;;;;;;5088252;28;20226;-77
2023/03/20 02:56:34;;;;;;;10.17;4.50;;;;;;;;;;5088481;28;20199;-76
2023/03/20 02:59:07;;;;;;;10.60;4.30;;;;;;;;;;5088853;28;20309;-77
2023/03/20 03:01:37;;;;;;;9.50;4.10;;;;;;;;;;5087964;28;20311;-77
2023/03/20 03:04:06;;;;;;;8.97;3.10;;;;;;;;;;5090853;28;20222;-77
2023/03/20 03:06:35;;;;;;;9.37;3.53;;;;;;;;;;5111133;28;20658;-76
2023/03/20 03:09:06;;;;;;;8.37;3.57;;;;;;;;;;5114486;28;20224;-77
2023/03/20 03:11:34;;;;;;;11.13;3.40;;;;;;;;;;5115012;28;20281;-77
2023/03/20 03:14:02;;;;;;;9.77;3.80;;;;;;;;;;5114844;28;20301;-77
2023/03/20 03:16:31;;;;;;;6.40;2.70;;;;;;;;;;5107400;28;20206;-76
2023/03/20 03:19:02;;;;;;;7.87;2.93;;;;;;;;;;5095991;28;20321;-78
2023/03/20 03:21:30;;;;;;;10.80;3.03;;;;;;;;;;5093876;28;20247;-77
2023/03/20 03:23:57;;;;;;;10.60;3.10;;;;;;;;;;5094455;28;20607;-77
2023/03/20 03:26:27;;;;;;;10.07;3.20;;;;;;;;;;5095147;28;20285;-77
2023/03/20 03:28:56;;;;;;;7.83;2.90;;;;;;;;;;5094502;28;20302;-76
2023/03/20 03:31:24;;;;;;;9.13;3.10;;;;;;;;;;5094560;28;20350;-77
2023/03/20 03:33:52;;;;;;;9.57;3.37;;;;;;;;;;5094131;28;20284;-77
2023/03/20 03:36:24;;;;;;;9.07;3.40;;;;;;;;;;5094603;28;20748;-77
2023/03/20 03:38:55;;;;;;;11.80;3.47;;;;;;;;;;5093736;28;20198;-78
2023/03/20 03:41:25;;;;;;;10.00;3.57;;;;;;;;;;5094139;28;20194;-78
2023/03/20 03:43:57;;;;;;;8.77;3.17;;;;;;;;;;5094021;28;20301;-77
2023/03/20 03:46:26;;;;;;;7.77;3.10;;;;;;;;;;5094200;28;20258;-77
2023/03/20 03:48:56;;;;;;;11.37;3.67;;;;;;;;;;5094008;28;20209;-77
2023/03/20 03:51:24;;;;;;;9.27;3.60;;;;;;;;;;5093806;28;20281;-77
2023/03/20 03:53:55;;;;;;;7.53;3.37;;;;;;;;;;5093828;28;20331;-77
2023/03/20 03:56:24;;;;;;;12.67;3.80;;;;;;;;;;5094586;28;20227;-77
2023/03/20 03:58:52;;;;;;;10.97;3.47;;;;;;;;;;5093478;28;20310;-77
2023/03/20 04:01:22;;;;;;;11.93;3.60;;;;;;;;;;5093649;28;20672;-77
2023/03/20 04:03:51;;;;;;;9.37;4.00;;;;;;;;;;5093503;28;20289;-77
2023/03/20 04:06:18;;;;;;;8.37;3.83;;;;;;;;;;5094078;28;20231;-76
2023/03/20 04:08:45;;;;;;;11.13;3.97;;;;;;;;;;5093399;28;20289;-77
2023/03/20 04:11:15;;;;;;;9.60;3.37;;;;;;;;;;5093666;28;20235;-76
2023/03/20 04:13:42;;;;;;;11.73;4.10;;;;;;;;;;5109906;28;20274;-77
2023/03/20 04:16:11;;;;;;;8.60;3.80;;;;;;;;;;5113544;28;20232;-77
2023/03/20 04:18:40;;;;;;;13.20;4.17;;;;;;;;;;5113140;28;20240;-77
2023/03/20 04:21:08;;;;;;;10.20;4.00;;;;;;;;;;5113157;28;20312;-77
2023/03/20 04:23:35;;;;;;;6.40;3.53;;;;;;;;;;5113645;28;20697;-76
2023/03/20 04:26:02;;;;;;;8.70;3.87;;;;;;;;;;5113414;28;20296;-78
2023/03/20 04:28:30;;;;;;;10.50;3.97;;;;;;;;;;5113563;28;20288;-76
2023/03/20 04:30:58;;;;;;;10.83;4.17;;;;;;;;;;5113829;28;20289;-78
2023/03/20 04:33:26;;;;;;;10.03;3.93;;;;;;;;;;5113269;27;20316;-77
2023/03/20 04:35:55;;;;;;;7.97;3.73;;;;;;;;;;5113526;28;20193;-78
2023/03/20 04:38:22;;;;;;;11.63;4.00;;;;;;;;;;5113634;28;20246;-77
2023/03/20 04:40:50;;;;;;;9.80;4.47;;;;;;;;;;5113433;28;20842;-77
2023/03/20 04:43:17;;;;;;;10.43;3.97;;;;;;;;;;5113657;28;20200;-76
2023/03/20 04:45:44;;;;;;;10.20;3.83;;;;;;;;;;5113388;28;20693;-76
2023/03/20 04:48:11;;;;;;;10.43;4.00;;;;;;;;;;5112756;28;20670;-76
2023/03/20 04:50:39;;;;;;;9.63;4.27;;;;;;;;;;5113188;28;20288;-77
2023/03/20 04:53:07;;;;;;;9.80;3.73;;;;;;;;;;5113213;28;20734;-76
2023/03/20 04:55:34;;;;;;;10.50;4.20;;;;;;;;;;5113187;28;20198;-77
2023/03/20 04:58:02;;;;;;;10.57;3.63;;;;;;;;;;5112837;28;20311;-77
2023/03/20 05:00:29;;;;;;;11.10;4.87;;;;;;;;;;5112960;28;20306;-77
2023/03/20 05:02:56;;;;;;;13.13;4.63;;;;;;;;;;5112565;28;20598;-77
2023/03/20 05:05:23;;;;;;;12.07;4.10;;;;;;;;;;5113240;28;20643;-77
2023/03/20 05:07:51;;;;;;;8.87;4.60;;;;;;;;;;5113158;28;20288;-77
2023/03/20 05:10:20;;;;;;;10.63;4.17;;;;;;;;;;5112891;28;20558;-77
2023/03/20 05:12:47;;;;;;;8.83;4.17;;;;;;;;;;5113022;28;20250;-77
2023/03/20 05:15:15;;;;;;;12.00;4.27;;;;;;;;;;5112220;28;20729;-77
2023/03/20 05:17:42;;;;;;;11.03;4.27;;;;;;;;;;5112935;28;20284;-77
2023/03/20 05:20:10;;;;;;;11.93;4.20;;;;;;;;;;5112227;28;20308;-76
2023/03/20 05:22:37;;;;;;;9.03;4.53;;;;;;;;;;5112693;28;20194;-78
2023/03/20 05:25:04;;;;;;;10.13;4.10;;;;;;;;;;5112441;27;20224;-77
2023/03/20 05:27:33;;;;;;;10.13;4.13;;;;;;;;;;5112265;28;20225;-76
2023/03/20 05:30:00;;;;;;;12.17;4.23;;;;;;;;;;5111817;28;20298;-77
2023/03/20 05:32:27;;;;;;;8.50;3.67;;;;;;;;;;5112476;28;20228;-77
2023/03/20 05:34:54;;;;;;;13.67;4.73;;;;;;;;;;5112563;28;20293;-78
2023/03/20 05:37:22;;;;;;;11.40;4.60;;;;;;;;;;5112394;28;20686;-77
2023/03/20 05:39:49;;;;;;;9.43;4.53;;;;;;;;;;5112218;28;20312;-77
2023/03/20 05:42:16;;;;;;;10.70;4.43;;;;;;;;;;5112619;28;20232;-77
2023/03/20 05:44:45;;;;;;;16.33;4.53;;;;;;;;;;5111699;28;20665;-77
2023/03/20 05:47:12;;;;;;;11.13;4.20;;;;;;;;;;5112449;28;20221;-77
2023/03/20 05:49:39;;;;;;;9.27;4.50;;;;;;;;;;5111878;28;20226;-76
2023/03/20 05:52:06;;;;;;;10.00;4.70;;;;;;;;;;5111947;28;20992;-77
2023/03/20 05:54:34;;;;;;;12.73;4.90;;;;;;;;;;5111766;28;20710;-76
2023/03/20 05:57:01;;;;;;;10.50;4.53;;;;;;;;;;5111803;28;20225;-75
2023/03/20 05:59:28;;;;;;;12.17;4.90;;;;;;;;;;5111532;28;20217;-77
2023/03/20 06:01:57;;;;;;;12.87;4.80;;;;;;;;;;5111769;28;20229;-76
2023/03/20 06:04:24;;;;;;;10.83;4.57;;;;;;;;;;5112276;28;20276;-77
2023/03/20 06:06:51;;;;;;;10.30;4.47;;;;;;;;;;5111961;28;20198;-76
2023/03/20 06:09:19;;;;;;;14.83;4.70;;;;;;;;;;5111721;28;20225;-76
2023/03/20 06:11:46;;;;;;;10.50;3.90;;;;;;;;;;5111907;28;20225;-76
2023/03/20 06:14:13;;;;;;;10.07;4.93;;;;;;;;;;5111387;28;20209;-77
2023/03/20 06:16:40;;;;;;;10.80;4.47;;;;;;;;;;5111564;28;20621;-77
2023/03/20 06:19:09;;;;;;;12.37;4.10;;;;;;;;;;5112004;28;20219;-75
2023/03/20 06:21:36;;;;;;;13.23;4.23;;;;;;;;;;5111796;28;20682;-76
2023/03/20 06:24:03;;;;;;;10.73;4.47;;;;;;;;;;5111439;28;20636;-75
2023/03/20 06:26:30;;;;;;;11.27;4.13;;;;;;;;;;5111293;28;20651;-76
2023/03/20 06:28:57;;;;;;;14.97;4.83;;;;;;;;;;5111376;28;20236;-77
2023/03/20 06:31:25;;;;;;;10.07;4.50;;;;;;;;;;5111870;28;20286;-76
2023/03/20 06:33:52;;;;;;;11.43;4.43;;;;;;;;;;5111673;28;20297;-76
2023/03/20 06:36:21;;;;;;;13.67;4.40;;;;;;;;;;5111378;28;20235;-76
2023/03/20 06:38:48;;;;;;;11.43;4.23;;;;;;;;;;5111382;28;20225;-76
2023/03/20 06:41:15;;;;;;;9.97;4.23;;;;;;;;;;5111272;28;20236;-76
2023/03/20 06:43:43;;;;;;;12.23;4.30;;;;;;;;;;5114220;28;20223;-76
2023/03/20 06:46:10;;;;;;;14.17;5.00;;;;;;;;;;5115610;28;20229;-76
2023/03/20 06:48:37;;;;;;;11.90;4.43;;;;;;;;;;5115585;28;20250;-76
2023/03/20 06:51:05;;;;;;;11.07;4.00;;;;;;;;;;5113316;28;20286;-75
2023/03/20 06:53:33;;;;;;;14.50;4.57;;;;;;;;;;5115641;27;20206;-76
2023/03/20 06:56:01;;;;;;;13.27;4.57;;;;;;;;;;5114991;28;20201;-76
2023/03/20 06:58:28;;;;;;;10.10;4.60;;;;;;;;;;5114715;28;20192;-77
2023/03/20 07:00:55;;;;;;;13.57;4.77;;;;;;;;;;5115257;28;20247;-75
2023/03/20 07:03:22;;;;;;;12.97;4.47;;;;;;;;;;5115290;28;20289;-76
2023/03/20 07:05:49;;;;;;;10.33;4.07;;;;;;;;;;5115102;27;20285;-76
2023/03/20 07:08:17;;;;;;;12.77;4.50;;;;;;;;;;5114887;28;20325;-76
2023/03/20 07:10:45;;;;;;;13.60;4.13;;;;;;;;;;5132437;27;20229;-76
2023/03/20 07:13:13;;;;;;;10.93;4.07;;;;;;;;;;5114497;27;20664;-76
2023/03/20 07:15:40;;;;;;;12.80;4.90;;;;;;;;;;5115050;28;20194;-76
2023/03/20 07:18:07;;;;;;;16.83;5.00;;;;;;;;;;5115053;28;20226;-77
2023/03/20 07:20:34;;;;;;;16.17;4.57;;;;;;;;;;5114628;28;20701;-76
2023/03/20 07:23:01;;;;;;;13.00;3.93;;;;;;;;;;5114950;28;20221;-76
2023/03/20 07:25:29;;;;;;;11.93;4.50;;;;;;;;;;5115592;27;20284;-76
2023/03/20 07:27:58;;;;;;;11.80;4.80;;;;;;;;;;5114351;28;20204;-76
2023/03/20 07:30:25;;;;;;;13.93;4.27;;;;;;;;;;5115060;28;20194;-76
2023/03/20 07:32:52;;;;;;;13.17;4.20;;;;;;;;;;5114853;28;20231;-76
2023/03/20 07:35:19;;;;;;;12.87;3.97;;;;;;;;;;5114256;28;20225;-76
2023/03/20 07:37:47;;;;;;;13.10;4.10;;;;;;;;;;5114762;28;20200;-76
2023/03/20 07:40:14;;;;;;;10.67;3.80;;;;;;;;;;5114492;28;20223;-76
2023/03/20 07:42:41;;;;;;;9.67;4.23;;;;;;;;;;5117635;27;20256;-76
2023/03/20 07:45:10;;;;;;;11.90;3.77;;;;;;;;;;5110177;27;20289;-76
2023/03/20 07:47:38;;;;;;;12.47;4.23;;;;;;;;;;5094109;28;20325;-76
2023/03/20 07:50:06;;;;;;;11.23;3.97;;;;;;;;;;5109378;28;20243;-76
2023/03/20 07:52:33;;;;;;;13.70;4.17;;;;;;;;;;5114167;28;20288;-76
2023/03/20 07:55:00;;;;;;;10.33;3.50;;;;;;;;;;5110816;28;20225;-76
2023/03/20 07:57:27;;;;;;;11.13;3.80;;;;;;;;;;5093656;28;20254;-76
2023/03/20 07:59:54;;;;;;;15.93;4.83;;;;;;;;;;5112354;28;20281;-76
2023/03/20 08:02:23;;;;;;;15.63;3.93;;;;;;;;;;5114558;27;20326;-76
2023/03/20 08:04:50;;;;;;;12.17;4.03;;;;;;;;;;5114356;28;20305;-76
2023/03/20 08:07:17;;;;;;;11.20;3.97;;;;;;;;;;5113888;28;20198;-76
2023/03/20 08:09:45;;;;;;;17.83;4.30;;;;;;;;;;5114288;28;20221;-76
2023/03/20 08:12:12;;;;;;;19.20;3.80;;;;;;;;;;5114224;28;20289;-75
2023/03/20 08:14:39;;;;;;;13.00;4.00;;;;;;;;;;5113735;28;20622;-75
2023/03/20 08:17:06;;;;;;;11.70;4.00;;;;;;;;;;5114255;28;20288;-77
2023/03/20 08:19:35;;;;;;;16.70;3.43;;;;;;;;;;5114080;28;20284;-76
2023/03/20 08:22:02;;;;;;;14.03;3.90;;;;;;;;;;5114113;28;20641;-76
2023/03/20 08:24:30;;;;;;;14.13;3.63;;;;;;;;;;5113566;28;20197;-77
2023/03/20 08:26:57;;;;;;;14.73;3.20;;;;;;;;;;5114194;28;20214;-76
2023/03/20 08:29:24;;;;;;;14.77;3.37;;;;;;;;;;5113582;28;20273;-76
2023/03/20 08:31:52;;;;;;;12.07;3.50;;;;;;;;;;5113938;28;20193;-76
2023/03/20 08:34:19;;;;;;;14.30;3.20;;;;;;;;;;5114090;28;20289;-76
2023/03/20 08:36:47;;;;;;;12.73;3.47;;;;;;;;;;5113853;28;20201;-76
2023/03/20 08:39:15;;;;;;;11.03;3.10;;;;;;;;;;5113359;28;20293;-76
2023/03/20 08:41:44;;;;;;;12.57;3.43;;;;;;;;;;5113425;28;20316;-77
2023/03/20 08:44:11;;;;;;;17.43;3.40;;;;;;;;;;5113470;28;20190;-76
2023/03/20 08:46:39;;;;;;;15.60;3.83;;;;;;;;;;5113779;28;20290;-76
2023/03/20 08:49:06;;;;;;;15.40;3.67;;;;;;;;;;5113276;28;20224;-77
2023/03/20 08:51:33;;;;;;;11.47;3.20;;;;;;;;;;5113466;27;20284;-76
2023/03/20 08:54:02;;;;;;;16.80;3.67;;;;;;;;;;5113382;28;20620;-77
2023/03/20 08:56:29;;;;;;;15.37;3.67;;;;;;;;;;5113210;28;20296;-76
2023/03/20 08:58:56;;;;;;;10.53;3.27;;;;;;;;;;5112968;28;20293;-77
2023/03/20 09:01:23;;;;;;;13.93;3.80;;;;;;;;;;5113066;28;20777;-77
2023/03/20 09:03:51;;;;;;;14.50;3.13;;;;;;;;;;5113305;28;20293;-77
2023/03/20 09:06:18;;;;;;;14.97;3.40;;;;;;;;;;5112650;28;20624;-77
2023/03/20 09:08:45;;;;;;;14.43;3.57;;;;;;;;;;5112890;28;20289;-76
2023/03/20 09:11:14;;;;;;;17.70;3.70;;;;;;;;;;5113053;28;20281;-76
2023/03/20 09:13:41;;;;;;;15.30;3.73;;;;;;;;;;5113114;28;20193;-75
2023/03/20 09:16:09;;;;;;;12.43;3.40;;;;;;;;;;5112782;28;20232;-77
2023/03/20 09:18:36;;;;;;;15.60;3.50;;;;;;;;;;5112946;28;20284;-78
2023/03/20 09:21:03;;;;;;;16.20;3.27;;;;;;;;;;5112795;28;20222;-77
2023/03/20 09:23:30;;;;;;;14.13;3.33;;;;;;;;;;5112749;28;20228;-76
2023/03/20 09:25:58;;;;;;;12.30;2.63;;;;;;;;;;5112807;28;20666;-77
2023/03/20 09:28:27;;;;;;;14.33;2.77;;;;;;;;;;5113194;28;20236;-77
2023/03/20 09:30:56;;;;;;;13.10;2.83;;;;;;;;;;5112802;28;20202;-77
2023/03/20 09:33:23;;;;;;;12.90;3.83;;;;;;;;;;5112809;28;20221;-77
2023/03/20 09:35:50;;;;;;;14.00;2.90;;;;;;;;;;5112727;28;20221;-77
2023/03/20 09:38:17;;;;;;;12.73;2.97;;;;;;;;;;5112381;28;20297;-77
2023/03/20 09:40:55;;;;;;;12.57;2.70;;;;;;;;;;5112446;28;21058;-77
2023/03/20 09:43:27;;;;;;;12.53;2.70;;;;;;;;;;5112252;28;20232;-76
2023/03/20 09:46:00;;;;;;;9.10;2.27;;;;;;;;;;5112553;28;20685;-76
2023/03/20 09:48:32;;;;;;;12.53;2.63;;;;;;;;;;5112558;28;20198;-77
2023/03/20 09:51:02;;;;;;;10.53;2.60;;;;;;;;;;5112274;28;20217;-77
2023/03/20 09:53:32;;;;;;;9.17;2.50;;;;;;;;;;5112329;28;20237;-77
2023/03/20 09:56:00;;;;;;;13.43;2.63;;;;;;;;;;5112349;28;20280;-77
2023/03/20 09:58:28;;;;;;;11.80;2.57;;;;;;;;;;5111821;28;20678;-77
2023/03/20 10:00:59;;;;;;;13.20;2.73;;;;;;;;;;5112043;28;20622;-76
2023/03/20 10:03:28;;;;;;;9.00;2.53;;;;;;;;;;5112274;28;20208;-76
2023/03/20 10:05:57;;;;;;;9.53;2.30;;;;;;;;;;5111754;28;20627;-77
2023/03/20 10:08:28;;;;;;;11.33;2.30;;;;;;;;;;5111974;28;20243;-77
2023/03/20 10:11:01;;;;;;;8.65;2.00;;;;;;;;;;5112090;28;20738;-77
2023/03/20 10:13:38;;;;;;;9.23;2.13;;;;;;;;;;5112064;28;20312;-78
2023/03/20 10:16:11;;;;;;;10.45;2.22;;;;;;;;;;5112463;28;20224;-77
2023/03/20 10:18:39;;;;;;;8.85;2.13;;;;;;;;;;5110786;28;20240;-77
2023/03/20 10:21:12;;;;;;;11.30;1.80;;;;;;;;;;5111817;28;20202;-77
2023/03/20 10:23:42;;;;;;;10.07;2.13;;;;;;;;;;5111876;28;20204;-78
2023/03/20 10:26:10;;;;;;;11.85;2.40;;;;;;;;;;5112270;28;20289;-77
2023/03/20 10:28:40;;;;;;;9.52;2.53;;;;;;;;;;5111836;28;20190;-77
2023/03/20 10:31:18;;;;;;;10.77;2.60;;;;;;;;;;5112032;28;20250;-78
2023/03/20 10:33:51;;;;;;;8.82;2.58;;;;;;;;;;5111656;28;20647;-78
2023/03/20 10:36:27;;;;;;;11.40;2.40;;;;;;;;;;5111725;28;20632;-78
2023/03/20 10:38:58;;;;;;;8.88;2.25;;;;;;;;;;5111864;28;20201;-77
2023/03/20 10:41:29;;;;;;;11.13;2.58;;;;;;;;;;5112079;28;20260;-77
2023/03/20 10:43:57;;;;;;;7.75;1.92;;;;;;;;;;5111747;28;20228;-77
2023/03/20 10:46:27;;;;;;;9.10;2.33;;;;;;;;;;5111805;28;20329;-76
2023/03/20 10:48:58;;;;;;;6.70;2.20;;;;;;;;;;5111306;28;21091;-77
2023/03/20 10:51:27;;;;;;;10.15;2.30;;;;;;;;;;5112017;28;20229;-78
2023/03/20 10:53:56;;;;;;;7.95;2.35;;;;;;;;;;5111761;28;20665;-77
2023/03/20 10:56:27;;;;;;;9.05;2.30;;;;;;;;;;5111893;28;20197;-78
2023/03/20 10:58:58;;;;;;;7.43;2.30;;;;;;;;;;5111349;28;20288;-78
2023/03/20 11:01:26;;;;;;;8.70;2.67;;;;;;;;;;5111208;28;20225;-77
2023/03/20 11:03:54;;;;;;;10.50;2.55;;;;;;;;;;5111406;28;20314;-79
2023/03/20 11:06:24;;;;;;;11.85;2.70;;;;;;;;;;5111555;28;20197;-78
2023/03/20 11:08:52;;;;;;;8.93;2.53;;;;;;;;;;5111624;28;20288;-78
2023/03/20 11:11:24;;;;;;;11.63;2.60;;;;;;;;;;5111473;28;20221;-77
2023/03/20 11:13:51;;;;;;;8.38;2.03;;;;;;;;;;5111228;28;20197;-77
2023/03/20 11:16:22;;;;;;;9.38;2.20;;;;;;;;;;5111492;28;20225;-77
2023/03/20 11:18:52;;;;;;;8.57;2.10;;;;;;;;;;5111322;28;20229;-76
2023/03/20 11:21:20;;;;;;;8.95;2.38;;;;;;;;;;5111653;28;20285;-77
2023/03/20 11:23:48;;;;;;;8.00;2.00;;;;;;;;;;5111168;28;20293;-78
2023/03/20 11:26:16;;;;;;;7.65;1.90;;;;;;;;;;5111508;28;20284;-78
2023/03/20 11:28:47;;;;;;;7.32;2.17;;;;;;;;;;5111906;28;20274;-77
2023/03/20 11:31:19;;;;;;;7.53;2.10;;;;;;;;;;5115108;28;20243;-78
2023/03/20 11:33:47;;;;;;;7.57;1.98;;;;;;;;;;5114920;28;20243;-78
2023/03/20 11:36:22;;;;;;;9.75;2.10;;;;;;;;;;5114638;28;20243;-78
2023/03/20 11:38:51;;;;;;;7.57;2.35;;;;;;;;;;5115177;28;20194;-78
2023/03/20 11:41:19;;;;;;;10.18;2.90;;;;;;;;;;5114884;27;20288;-78
2023/03/20 11:43:46;;;;;;;9.35;2.20;;;;;;;;;;5114689;28;20849;-77
2023/03/20 11:46:14;;;;;;;8.00;2.20;;;;;;;;;;5114594;28;20256;-78
2023/03/20 11:48:43;;;;;;;8.35;2.42;;;;;;;;;;5114556;28;20197;-78
2023/03/20 11:51:11;;;;;;;8.93;2.22;;;;;;;;;;5114653;28;20207;-78
2023/03/20 11:53:42;;;;;;;7.30;2.05;;;;;;;;;;5114615;28;20221;-77
2023/03/20 11:56:11;;;;;;;9.02;2.30;;;;;;;;;;5114597;28;20259;-78
2023/03/20 11:58:39;;;;;;;10.75;2.22;;;;;;;;;;5114534;27;20293;-77
2023/03/20 12:01:10;;;;;;;6.30;2.45;;;;;;;;;;5114634;27;20236;-78
2023/03/20 12:03:42;;;;;;;6.25;2.10;;;;;;;;;;5114164;28;20312;-77
2023/03/20 12:06:14;;;;;;;9.18;2.30;;;;;;;;;;5114198;28;20233;-77
2023/03/20 12:08:43;;;;;;;8.55;2.17;;;;;;;;;;5114309;28;20198;-78
2023/03/20 12:11:20;;;;;;;10.80;2.60;;;;;;;;;;5114023;28;20745;-78
2023/03/20 12:13:50;;;;;;;6.85;2.10;;;;;;;;;;5114171;28;20227;-77
2023/03/20 12:16:19;;;;;;;9.20;2.45;;;;;;;;;;5114311;28;20313;-77
2023/03/20 12:18:47;;;;;;;9.35;2.53;;;;;;;;;;5113739;28;20198;-76
2023/03/20 12:21:17;;;;;;;6.15;1.90;;;;;;;;;;5114421;28;20297;-77
2023/03/20 12:23:48;;;;;;;9.98;2.33;;;;;;;;;;5113988;28;20281;-77
2023/03/20 12:26:16;;;;;;;10.80;2.53;;;;;;;;;;5113981;28;20228;-77
2023/03/20 12:28:48;;;;;;;9.50;2.47;;;;;;;;;;5113743;28;20270;-77
2023/03/20 12:31:32;;;;;;;10.10;2.23;;;;;;;;;;5113627;28;20277;-77
2023/03/20 12:34:03;;;;;;;9.20;2.50;;;;;;;;;;5113927;28;20670;-77
2023/03/20 12:36:32;;;;;;;6.70;2.00;;;;;;;;;;5113662;28;20218;-78
2023/03/20 12:39:02;;;;;;;13.25;2.80;;;;;;;;;;5113766;28;20205;-77
2023/03/20 12:41:34;;;;;;;12.00;2.92;;;;;;;;;;5112659;28;20225;-78
2023/03/20 12:44:16;;;;;;;7.65;2.00;;;;;;;;;;5114095;28;20269;-77
2023/03/20 12:46:45;;;;;;;14.18;4.47;;;;;;;;;;5113132;28;20329;-77
2023/03/20 12:49:18;;;;;;;12.47;4.27;;;;;;;;;;5113436;28;20734;-77
2023/03/20 12:51:51;;;;;;;11.00;2.28;;;;;;;;;;5113456;28;20194;-77
2023/03/20 12:54:31;;;;;;;9.23;2.67;;;;;;;;;;5113509;28;20375;-78
2023/03/20 12:57:03;;;;;;;9.25;2.45;;;;;;;;;;5113561;28;20221;-78
2023/03/20 12:59:34;;;;;;;6.47;1.88;;;;;;;;;;5112806;28;20217;-77
2023/03/20 13:02:04;;;;;;;5.47;2.00;;;;;;;;;;5113309;28;20280;-77
2023/03/20 13:04:49;;;;;;;10.38;2.42;;;;;;;;;;5113252;28;20225;-77
2023/03/20 13:07:19;;;;;;;6.23;2.30;;;;;;;;;;5113048;28;20638;-76
2023/03/20 13:09:58;;;;;;;9.50;2.00;;;;;;;;;;5113051;27;20205;-77
2023/03/20 13:12:30;;;;;;;6.10;2.00;;;;;;;;;;5113162;28;20221;-78
2023/03/20 13:15:03;;;;;;;9.23;2.30;;;;;;;;;;5112657;28;20199;-77
2023/03/20 13:17:34;;;;;;;6.40;2.10;;;;;;;;;;5113062;28;20284;-77
2023/03/20 13:20:14;;;;;;;6.80;2.10;;;;;;;;;;5112960;28;20240;-77
2023/03/20 13:22:47;;;;;;;6.67;1.87;;;;;;;;;;5112638;28;20732;-77
2023/03/20 13:25:25;;;;;;;9.68;2.30;;;;;;;;;;5112846;27;20627;-76
2023/03/20 13:27:56;;;;;;;9.63;2.40;;;;;;;;;;5113140;28;20242;-78
2023/03/20 13:30:27;;;;;;;9.23;2.08;;;;;;;;;;5112624;28;20198;-77
2023/03/20 13:32:58;;;;;;;10.95;2.03;;;;;;;;;;5112744;28;20193;-77
2023/03/20 13:35:31;;;;;;;11.23;2.55;;;;;;;;;;5112701;28;20615;-77
2023/03/20 13:37:59;;;;;;;9.30;2.33;;;;;;;;;;5112671;28;20236;-77
2023/03/20 13:40:29;;;;;;;6.47;2.23;;;;;;;;;;5112573;28;20194;-76
2023/03/20 13:42:59;;;;;;;8.93;2.20;;;;;;;;;;5112335;28;20221;-77
2023/03/20 13:45:28;;;;;;;7.93;2.40;;;;;;;;;;5112196;28;20638;-77
2023/03/20 13:47:56;;;;;;;10.43;2.33;;;;;;;;;;5112807;28;20643;-78
2023/03/20 13:50:38;;;;;;;11.77;2.23;;;;;;;;;;5112451;28;20225;-77
2023/03/20 13:53:09;;;;;;;8.10;2.17;;;;;;;;;;5110827;28;20237;-78
2023/03/20 13:55:41;;;;;;;7.37;2.13;;;;;;;;;;5112466;28;20194;-77
2023/03/20 13:58:14;;;;;;;8.97;2.10;;;;;;;;;;5111856;28;20193;-77
2023/03/20 14:00:44;;;;;;;8.80;2.20;;;;;;;;;;5111672;28;20670;-78
2023/03/20 14:03:15;;;;;;;6.53;2.03;;;;;;;;;;5111958;28;20221;-77
2023/03/20 14:05:44;;;;;;;7.50;2.07;;;;;;;;;;5112502;28;20197;-77
2023/03/20 14:08:31;;;;;;;8.50;2.00;;;;;;;;;;5111749;28;20201;-76
2023/03/20 14:11:08;;;;;;;7.40;1.95;;;;;;;;;;5112222;28;20193;-78
2023/03/20 14:13:35;;;;;;;8.77;2.00;;;;;;;;;;5111588;28;20704;-77
2023/03/20 14:16:04;;;;;;;10.60;2.40;;;;;;;;;;5111983;28;20636;-77
2023/03/20 14:18:31;;;;;;;7.73;1.87;;;;;;;;;;5112205;28;20658;-77
2023/03/20 14:21:00;;;;;;;9.03;1.87;;;;;;;;;;5111698;28;20189;-77
2023/03/20 14:23:34;;;;;;;5.50;1.73;;;;;;;;;;5111609;28;20229;-77
2023/03/20 14:26:01;;;;;;;9.33;2.23;;;;;;;;;;5112044;28;20229;-78
2023/03/20 14:28:33;;;;;;;6.90;2.10;;;;;;;;;;5111460;28;20292;-77
2023/03/20 14:31:14;;;;;;;9.23;1.80;;;;;;;;;;5111775;28;20233;-78
2023/03/20 14:33:44;;;;;;;4.87;1.60;;;;;;;;;;5111791;28;20197;-78
2023/03/20 14:36:17;;;;;;;7.50;1.87;;;;;;;;;;5111863;28;20225;-77
2023/03/20 14:38:47;;;;;;;10.17;2.07;;;;;;;;;;5111944;28;20285;-78
2023/03/20 14:41:17;;;;;;;8.33;1.80;;;;;;;;;;5111636;28;20226;-77
2023/03/20 14:43:57;;;;;;;7.03;1.60;;;;;;;;;;5111832;28;20320;-77
2023/03/20 14:46:28;;;;;;;9.43;2.00;;;;;;;;;;5111612;28;20229;-76
2023/03/20 14:48:55;;;;;;;7.90;2.40;;;;;;;;;;5111853;28;20194;-77